createdAt,value
2023-04-10T00:00:17.839Z,30.331
2023-04-10T00:05:17.652Z,30.332
2023-04-10T00:10:17.666Z,30.332
2023-04-10T00:15:17.693Z,30.335
2023-04-10T00:20:17.562Z,30.337
2023-04-10T00:25:18.094Z,30.338
2023-04-10T00:30:17.718Z,30.338
2023-04-10T00:35:17.829Z,30.340
2023-04-10T00:40:17.681Z,30.340
2023-04-10T00:45:17.960Z,30.338
2023-04-10T00:50:17.601Z,30.338
2023-04-10T00:55:17.657Z,30.340
2023-04-10T01:00:17.782Z,30.342
2023-04-10T01:05:17.769Z,30.340
2023-04-10T01:10:17.626Z,30.341
2023-04-10T01:15:18.053Z,30.342
2023-04-10T01:20:17.842Z,30.346
2023-04-10T01:25:17.756Z,30.346
2023-04-10T01:30:18.093Z,30.345
2023-04-10T01:35:18.149Z,30.346
2023-04-10T01:40:17.736Z,30.347
2023-04-10T01:45:18.101Z,30.348
2023-04-10T01:50:18.090Z,30.348
2023-04-10T01:55:18.053Z,30.346
2023-04-10T02:00:17.963Z,30.347
2023-04-10T02:05:18.028Z,30.347
2023-04-10T02:10:17.910Z,30.344
2023-04-10T02:15:18.084Z,30.347
2023-04-10T02:20:17.837Z,30.346
2023-04-10T02:25:18.067Z,30.347
2023-04-10T02:30:18.362Z,30.345
2023-04-10T02:35:18.169Z,30.345
2023-04-10T02:40:17.875Z,30.346
2023-04-10T02:45:18.388Z,30.342
2023-04-10T02:50:17.972Z,30.341
2023-04-10T02:55:18.083Z,30.340
2023-04-10T03:00:18.096Z,30.336
2023-04-10T03:05:18.284Z,30.336
2023-04-10T03:10:18.020Z,30.335
2023-04-10T03:15:18.151Z,30.334
2023-04-10T03:20:18.073Z,30.333
2023-04-10T03:25:18.204Z,30.330
2023-04-10T03:30:18.132Z,30.329
2023-04-10T03:35:18.113Z,30.328
2023-04-10T03:40:18.285Z,30.325
2023-04-10T03:45:18.735Z,30.324
2023-04-10T03:50:18.103Z,30.323
2023-04-10T03:55:18.614Z,30.323
2023-04-10T04:00:17.212Z,30.319
2023-04-10T04:05:17.258Z,30.318
2023-04-10T04:10:17.164Z,30.318
2023-04-10T04:15:17.515Z,30.315
2023-04-10T04:20:17.200Z,30.317
2023-04-10T04:25:17.240Z,30.317
2023-04-10T04:30:17.236Z,30.314
2023-04-10T04:35:17.395Z,30.312
2023-04-10T04:40:17.293Z,30.312
2023-04-10T04:45:17.472Z,30.313
2023-04-10T04:50:17.431Z,30.313
2023-04-10T04:55:17.746Z,30.312
2023-04-10T05:00:17.526Z,30.312
2023-04-10T05:05:17.604Z,30.312
2023-04-10T05:10:17.339Z,30.312
2023-04-10T05:15:17.530Z,30.310
2023-04-10T05:20:17.339Z,30.311
2023-04-10T05:25:17.619Z,30.311
2023-04-10T05:30:17.543Z,30.309
2023-04-10T05:35:17.447Z,30.308
2023-04-10T05:40:17.345Z,30.307
2023-04-10T05:45:17.790Z,30.305
2023-04-10T05:50:17.399Z,30.301
2023-04-10T05:55:17.537Z,30.300
2023-04-10T06:00:17.679Z,30.300
2023-04-10T06:05:17.706Z,30.300
2023-04-10T06:10:17.458Z,30.298
2023-04-10T06:15:18.010Z,30.298
2023-04-10T06:20:17.436Z,30.298
2023-04-10T06:25:17.593Z,30.297
2023-04-10T06:30:17.578Z,30.297
2023-04-10T06:35:17.680Z,30.298
2023-04-10T06:40:17.504Z,30.297
2023-04-10T06:45:17.731Z,30.297
2023-04-10T06:50:17.551Z,30.297
2023-04-10T06:55:17.579Z,30.296
2023-04-10T07:00:17.656Z,30.296
2023-04-10T07:05:17.755Z,30.297
2023-04-10T07:10:17.876Z,30.296
2023-04-10T07:15:17.998Z,30.295
2023-04-10T07:20:17.689Z,30.295
2023-04-10T07:25:18.025Z,30.292
2023-04-10T07:30:17.873Z,30.295
2023-04-10T07:35:17.757Z,30.296
2023-04-10T07:40:19.256Z,30.296
2023-04-10T07:45:17.876Z,30.299
2023-04-10T07:50:17.705Z,30.300
2023-04-10T07:55:17.847Z,30.299
2023-04-10T08:00:18.016Z,30.299
2023-04-10T08:05:17.821Z,30.298
2023-04-10T08:10:17.809Z,30.297
2023-04-10T08:15:18.035Z,30.299
2023-04-10T08:20:17.890Z,30.300
2023-04-10T08:25:17.915Z,30.298
2023-04-10T08:30:17.844Z,30.299
2023-04-10T08:35:18.138Z,30.302
2023-04-10T08:40:17.800Z,30.303
2023-04-10T08:45:18.609Z,30.303
2023-04-10T08:50:17.843Z,30.304
2023-04-10T08:55:18.008Z,30.301
2023-04-10T09:00:23.389Z,30.300
2023-04-10T09:05:18.046Z,30.300
2023-04-10T09:10:18.001Z,30.302
2023-04-10T09:15:18.208Z,30.300
2023-04-10T09:20:18.078Z,30.299
2023-04-10T09:25:18.148Z,30.302
2023-04-10T09:30:18.269Z,30.302
2023-04-10T09:35:18.038Z,30.302
2023-04-10T09:40:18.054Z,30.303
2023-04-10T09:45:18.472Z,30.305
2023-04-10T09:50:18.018Z,30.305
2023-04-10T09:55:18.413Z,30.305
2023-04-10T10:00:18.400Z,30.305
2023-04-10T10:05:18.323Z,30.305
2023-04-10T10:10:18.080Z,30.306
2023-04-10T10:15:18.336Z,30.308
2023-04-10T10:20:18.183Z,30.309
2023-04-10T10:25:18.285Z,30.310
2023-04-10T10:30:29.564Z,30.311
2023-04-10T10:35:18.438Z,30.310
2023-04-10T10:40:18.197Z,30.311
2023-04-10T10:45:18.360Z,30.312
2023-04-10T10:50:18.586Z,30.314
2023-04-10T10:55:16.248Z,30.314
2023-04-10T11:00:16.336Z,30.317
2023-04-10T11:05:16.837Z,30.318
2023-04-10T11:10:16.222Z,30.319
2023-04-10T11:15:16.533Z,30.323
2023-04-10T11:20:16.240Z,30.323
2023-04-10T11:25:16.358Z,30.324
2023-04-10T11:30:16.396Z,30.324
2023-04-10T11:35:16.242Z,30.326
2023-04-10T11:40:16.662Z,30.325
2023-04-10T11:45:16.509Z,30.324
2023-04-10T11:50:16.311Z,30.326
2023-04-10T11:55:16.660Z,30.325
2023-04-10T12:00:16.509Z,30.322
2023-04-10T12:05:16.550Z,30.321
2023-04-10T12:10:16.395Z,30.323
2023-04-10T12:15:16.670Z,30.324
2023-04-10T12:20:16.596Z,30.324
2023-04-10T12:25:16.540Z,30.323
2023-04-10T12:30:16.715Z,30.324
2023-04-10T12:35:16.570Z,30.324
2023-04-10T12:40:16.429Z,30.322
2023-04-10T12:45:16.698Z,30.322
2023-04-10T12:50:16.749Z,30.322
2023-04-10T12:55:16.569Z,30.321
2023-04-10T13:00:16.670Z,30.321
2023-04-10T13:05:16.887Z,30.320
2023-04-10T13:10:16.516Z,30.319
2023-04-10T13:15:16.791Z,30.317
2023-04-10T13:20:16.548Z,30.317
2023-04-10T13:25:16.920Z,30.315
2023-04-10T13:30:16.618Z,30.313
2023-04-10T13:35:16.731Z,30.313
2023-04-10T13:40:16.702Z,30.311
2023-04-10T13:45:16.939Z,30.312
2023-04-10T13:50:16.880Z,30.311
2023-04-10T13:55:16.759Z,30.309
2023-04-10T14:00:16.882Z,30.308
2023-04-10T14:05:16.719Z,30.306
2023-04-10T14:10:16.870Z,30.306
2023-04-10T14:15:17.192Z,30.308
2023-04-10T14:20:16.795Z,30.307
2023-04-10T14:25:16.941Z,30.305
2023-04-10T14:30:16.812Z,30.306
2023-04-10T14:35:17.087Z,30.305
2023-04-10T14:40:16.813Z,30.305
2023-04-10T14:45:17.095Z,30.303
2023-04-10T14:50:16.737Z,30.303
2023-04-10T14:55:17.299Z,30.307
2023-04-10T15:00:17.123Z,30.305
2023-04-10T15:05:16.962Z,30.305
2023-04-10T15:10:16.995Z,30.305
2023-04-10T15:15:18.895Z,30.303
2023-04-10T15:20:16.828Z,30.303
2023-04-10T15:25:16.937Z,30.301
2023-04-10T15:30:17.011Z,30.299
2023-04-10T15:35:17.106Z,30.301
2023-04-10T15:40:17.233Z,30.300
2023-04-10T15:45:17.098Z,30.298
2023-04-10T15:50:16.988Z,30.296
2023-04-10T15:55:17.035Z,30.295
2023-04-10T16:00:17.203Z,30.293
2023-04-10T16:05:17.096Z,30.292
2023-04-10T16:10:16.940Z,30.291
2023-04-10T16:15:17.510Z,30.286
2023-04-10T16:20:17.050Z,30.286
2023-04-10T16:25:18.075Z,30.282
2023-04-10T16:30:17.209Z,30.280
2023-04-10T16:35:17.275Z,30.278
2023-04-10T16:40:17.258Z,30.275
2023-04-10T16:45:17.279Z,30.274
2023-04-10T16:50:17.199Z,30.271
2023-04-10T16:55:17.108Z,30.271
2023-04-10T17:00:17.221Z,30.267
2023-04-10T17:05:17.482Z,30.265
2023-04-10T17:10:17.172Z,30.263
2023-04-10T17:15:17.619Z,30.262
2023-04-10T17:20:17.215Z,30.260
2023-04-10T17:25:17.495Z,30.258
2023-04-10T17:30:17.430Z,30.256
2023-04-10T17:35:17.544Z,30.255
2023-04-10T17:40:17.221Z,30.252
2023-04-10T17:45:17.373Z,30.251
2023-04-10T17:50:17.829Z,30.249
2023-04-10T17:55:17.381Z,30.246
2023-04-10T18:00:18.681Z,30.243
2023-04-10T18:05:17.318Z,30.241
2023-04-10T18:10:17.476Z,30.239
2023-04-10T18:15:17.541Z,30.236
2023-04-10T18:20:17.417Z,30.233
2023-04-10T18:25:17.486Z,30.229
2023-04-10T18:30:17.462Z,30.226
2023-04-10T18:35:17.606Z,30.226
2023-04-10T18:40:17.475Z,30.223
2023-04-10T18:45:17.931Z,30.221
2023-04-10T18:50:17.433Z,30.219
2023-04-10T18:55:17.495Z,30.216
2023-04-10T19:00:17.448Z,30.215
2023-04-10T19:05:17.616Z,30.214
2023-04-10T19:10:17.603Z,30.212
2023-04-10T19:15:17.604Z,30.210
2023-04-10T19:20:17.685Z,30.209
2023-04-10T19:25:17.616Z,30.208
2023-04-10T19:30:17.606Z,30.208
2023-04-10T19:35:17.659Z,30.209
2023-04-10T19:40:17.546Z,30.203
2023-04-10T19:45:17.872Z,30.202
2023-04-10T19:50:17.573Z,30.205
2023-04-10T19:55:19.087Z,30.202
2023-04-10T20:00:17.774Z,30.200
2023-04-10T20:05:17.667Z,30.200
2023-04-10T20:10:17.614Z,30.200
2023-04-10T20:15:18.082Z,30.201
2023-04-10T20:20:18.305Z,30.200
2023-04-10T20:25:18.189Z,30.200
2023-04-10T20:30:17.661Z,30.198
2023-04-10T20:35:17.758Z,30.196
2023-04-10T20:40:17.802Z,30.195
2023-04-10T20:45:17.792Z,30.193
2023-04-10T20:50:17.818Z,30.191
2023-04-10T20:55:17.888Z,30.191
2023-04-10T21:00:17.736Z,30.188
2023-04-10T21:05:18.068Z,30.186
2023-04-10T21:10:17.766Z,30.184
2023-04-10T21:15:19.547Z,30.182
2023-04-10T21:20:17.774Z,30.181
2023-04-10T21:25:19.391Z,30.178
2023-04-10T21:30:18.060Z,30.178
2023-04-10T21:35:17.981Z,30.176
2023-04-10T21:40:17.855Z,30.174
2023-04-10T21:45:17.957Z,30.174
2023-04-10T21:50:17.896Z,30.174
2023-04-10T21:55:17.933Z,30.174
2023-04-10T22:00:19.025Z,30.173
2023-04-10T22:05:17.984Z,30.171
2023-04-10T22:10:17.947Z,30.171
2023-04-10T22:15:18.361Z,30.166
2023-04-10T22:20:17.900Z,30.164
2023-04-10T22:25:17.992Z,30.161
2023-04-10T22:30:18.307Z,30.159
2023-04-10T22:35:18.119Z,30.158
2023-04-10T22:40:18.257Z,30.160
2023-04-10T22:45:18.184Z,30.162
2023-04-10T22:50:17.984Z,30.160
2023-04-10T22:55:18.084Z,30.155
2023-04-10T23:00:18.164Z,30.152
2023-04-10T23:05:18.432Z,30.152
2023-04-10T23:10:18.049Z,30.150
2023-04-10T23:15:18.387Z,30.150
2023-04-10T23:20:18.128Z,30.148
2023-04-10T23:25:19.431Z,30.148
2023-04-10T23:30:18.212Z,30.148
2023-04-10T23:35:18.684Z,30.148
2023-04-10T23:40:18.198Z,30.147
2023-04-10T23:45:18.534Z,30.148
2023-04-10T23:50:18.509Z,30.147
2023-04-10T23:55:18.399Z,30.147
